N959AW SAZN-SAZM
Flight info
| Callsign | N959AW |
|---|---|
| Flight time | 1h 17m |
| Altitude | 37000 |
| Route | ROPON UW32 SIGUL DCT SIRAN SIRAN2Q |
| Aircraft | CL60/M-SBDE1E2E3FGHIJ1J4J5J7M3RWXYZ/LB1V1D1 |
Departure
| Time | 2026-04-21 22:40 |
|---|---|
| Airport | Presidente Perón International Airport (SAZN) |
Arrival
| Time | 2026-04-21 23:57 |
|---|---|
| Airport | Ástor Piazzola International Airport (SAZM) |
| Time | Latitude | Longitude | Altitude | Speed | Heading |
|---|---|---|---|---|---|
| 2026-04-21 21:51 | -38.95161 | -68.13970 | 905 ft | 0 kts | 180° |
| 2026-04-21 22:36 | -38.95162 | -68.13971 | 904 ft | 1 kts | 195° |
| 2026-04-21 22:36 | -38.95150 | -68.13982 | 904 ft | 5 kts | 15° |
| 2026-04-21 22:37 | -38.95103 | -68.13963 | 904 ft | 6 kts | 4° |
| 2026-04-21 22:37 | -38.95048 | -68.13981 | 905 ft | 10 kts | 317° |
| 2026-04-21 22:37 | -38.94990 | -68.14055 | 905 ft | 13 kts | 314° |
| 2026-04-21 22:37 | -38.94938 | -68.14122 | 905 ft | 6 kts | 315° |
| 2026-04-21 22:38 | -38.94899 | -68.14168 | 905 ft | 9 kts | 259° |
| 2026-04-21 22:38 | -38.94900 | -68.14190 | 905 ft | 0 kts | 269° |
| 2026-04-21 22:39 | -38.94901 | -68.14226 | 905 ft | 21 kts | 269° |
| 2026-04-21 22:39 | -38.94901 | -68.14844 | 905 ft | 119 kts | 269° |
| 2026-04-21 22:40 | -38.94895 | -68.16735 | 1525 ft | 177 kts | 272° |
| 2026-04-21 22:40 | -38.94870 | -68.17748 | 2283 ft | 178 kts | 273° |
| 2026-04-21 22:40 | -38.94898 | -68.19356 | 3263 ft | 193 kts | 270° |
| 2026-04-21 22:40 | -38.94964 | -68.21106 | 4433 ft | 204 kts | 266° |
| 2026-04-21 22:41 | -38.95493 | -68.22732 | 5807 ft | 210 kts | 228° |
| 2026-04-21 22:41 | -38.96771 | -68.23512 | 7111 ft | 221 kts | 188° |
| 2026-04-21 22:41 | -38.98785 | -68.23022 | 8756 ft | 236 kts | 159° |
| 2026-04-21 22:41 | -39.00160 | -68.21762 | 9716 ft | 261 kts | 136° |
| 2026-04-21 22:42 | -39.00879 | -68.20409 | 10030 ft | 291 kts | 113° |
| 2026-04-21 22:42 | -39.01136 | -68.17810 | 10932 ft | 309 kts | 82° |
| 2026-04-21 22:42 | -39.00822 | -68.15023 | 12031 ft | 320 kts | 79° |
| 2026-04-21 22:42 | -39.00488 | -68.12225 | 13085 ft | 331 kts | 80° |
| 2026-04-21 22:43 | -39.00150 | -68.09192 | 13940 ft | 348 kts | 81° |
| 2026-04-21 22:43 | -38.99723 | -68.05068 | 15320 ft | 357 kts | 81° |
| 2026-04-21 22:43 | -38.99509 | -68.02986 | 15993 ft | 361 kts | 81° |
| 2026-04-21 22:43 | -38.99176 | -67.99761 | 17047 ft | 365 kts | 81° |
| 2026-04-21 22:44 | -38.98848 | -67.96571 | 18030 ft | 369 kts | 80° |
| 2026-04-21 22:44 | -38.98507 | -67.93268 | 18976 ft | 373 kts | 80° |
| 2026-04-21 22:44 | -38.98168 | -67.89987 | 19836 ft | 378 kts | 80° |
| 2026-04-21 22:44 | -38.97821 | -67.86634 | 20659 ft | 382 kts | 81° |
| 2026-04-21 22:45 | -38.97469 | -67.83235 | 21434 ft | 388 kts | 80° |
| 2026-04-21 22:45 | -38.97111 | -67.79806 | 22193 ft | 392 kts | 80° |
| 2026-04-21 22:45 | -38.96787 | -67.76349 | 22970 ft | 396 kts | 84° |
| 2026-04-21 22:45 | -38.96697 | -67.72787 | 23707 ft | 402 kts | 86° |
| 2026-04-21 22:46 | -38.96635 | -67.69169 | 24442 ft | 407 kts | 86° |
| 2026-04-21 22:46 | -38.96567 | -67.65546 | 25124 ft | 412 kts | 86° |
| 2026-04-21 22:46 | -38.96494 | -67.61818 | 25814 ft | 417 kts | 86° |
| 2026-04-21 22:46 | -38.96420 | -67.58103 | 26472 ft | 421 kts | 86° |
| 2026-04-21 22:47 | -38.96344 | -67.54375 | 27101 ft | 425 kts | 86° |
| 2026-04-21 22:47 | -38.96263 | -67.50572 | 27677 ft | 430 kts | 86° |
| 2026-04-21 22:47 | -38.96152 | -67.45409 | 28447 ft | 435 kts | 86° |
| 2026-04-21 22:47 | -38.96094 | -67.42811 | 28818 ft | 437 kts | 86° |
| 2026-04-21 22:48 | -38.96006 | -67.38916 | 29347 ft | 441 kts | 86° |
| 2026-04-21 22:48 | -38.95916 | -67.34957 | 29875 ft | 444 kts | 85° |
| 2026-04-21 22:48 | -38.95823 | -67.30994 | 30364 ft | 448 kts | 85° |
| 2026-04-21 22:48 | -38.95728 | -67.27001 | 30840 ft | 451 kts | 85° |
| 2026-04-21 22:49 | -38.95630 | -67.22956 | 31380 ft | 452 kts | 85° |
| 2026-04-21 22:49 | -38.95532 | -67.18934 | 32062 ft | 449 kts | 85° |
| 2026-04-21 22:49 | -38.95434 | -67.14979 | 32761 ft | 444 kts | 85° |
| 2026-04-21 22:49 | -38.95335 | -67.11041 | 33421 ft | 441 kts | 85° |
| 2026-04-21 22:50 | -38.95235 | -67.07117 | 34001 ft | 439 kts | 85° |
| 2026-04-21 22:50 | -38.95132 | -67.03216 | 34324 ft | 442 kts | 85° |
| 2026-04-21 22:50 | -38.95027 | -66.99262 | 34569 ft | 446 kts | 85° |
| 2026-04-21 22:50 | -38.94919 | -66.95261 | 34816 ft | 450 kts | 85° |
| 2026-04-21 22:51 | -38.94809 | -66.91231 | 35105 ft | 452 kts | 85° |
| 2026-04-21 22:51 | -38.94698 | -66.87206 | 35398 ft | 453 kts | 85° |
| 2026-04-21 22:51 | -38.94586 | -66.83178 | 35709 ft | 454 kts | 85° |
| 2026-04-21 22:51 | -38.94470 | -66.79087 | 36021 ft | 455 kts | 85° |
| 2026-04-21 22:52 | -38.94355 | -66.75059 | 36376 ft | 456 kts | 85° |
| 2026-04-21 22:52 | -38.94197 | -66.69621 | 36836 ft | 458 kts | 85° |
| 2026-04-21 22:52 | -38.94116 | -66.66896 | 36998 ft | 460 kts | 85° |
| 2026-04-21 22:52 | -38.93994 | -66.62791 | 37013 ft | 467 kts | 85° |
| 2026-04-21 22:53 | -38.93736 | -66.54344 | 37025 ft | 481 kts | 86° |
| 2026-04-21 22:53 | -38.93467 | -66.45665 | 37022 ft | 493 kts | 86° |
| 2026-04-21 22:54 | -38.93183 | -66.36753 | 37024 ft | 502 kts | 86° |
| 2026-04-21 22:54 | -38.92893 | -66.27811 | 37028 ft | 505 kts | 85° |
| 2026-04-21 22:55 | -38.92594 | -66.18824 | 37028 ft | 504 kts | 85° |
| 2026-04-21 22:55 | -38.92239 | -66.08406 | 37032 ft | 503 kts | 85° |
| 2026-04-21 22:56 | -38.91980 | -66.00965 | 37052 ft | 503 kts | 85° |
| 2026-04-21 22:56 | -38.91660 | -65.91961 | 37033 ft | 503 kts | 85° |
| 2026-04-21 22:57 | -38.91336 | -65.83070 | 37029 ft | 504 kts | 85° |
| 2026-04-21 22:57 | -38.91003 | -65.74106 | 37034 ft | 503 kts | 85° |
| 2026-04-21 22:58 | -38.90663 | -65.65151 | 37040 ft | 504 kts | 86° |
| 2026-04-21 22:58 | -38.90317 | -65.56234 | 37039 ft | 505 kts | 86° |
| 2026-04-21 22:59 | -38.89964 | -65.47268 | 37037 ft | 506 kts | 86° |
| 2026-04-21 22:59 | -38.89602 | -65.38294 | 37038 ft | 506 kts | 86° |
| 2026-04-21 23:00 | -38.89233 | -65.29301 | 37034 ft | 506 kts | 85° |
| 2026-04-21 23:00 | -38.88858 | -65.20341 | 37041 ft | 506 kts | 85° |
| 2026-04-21 23:01 | -38.88475 | -65.11334 | 37061 ft | 507 kts | 85° |
| 2026-04-21 23:01 | -38.88086 | -65.02370 | 37065 ft | 507 kts | 85° |
| 2026-04-21 23:02 | -38.87621 | -64.91846 | 37059 ft | 508 kts | 85° |
| 2026-04-21 23:02 | -38.87216 | -64.82855 | 37049 ft | 508 kts | 85° |
| 2026-04-21 23:03 | -38.86869 | -64.75272 | 37060 ft | 508 kts | 85° |
| 2026-04-21 23:03 | -38.86451 | -64.66277 | 37047 ft | 509 kts | 86° |
| 2026-04-21 23:04 | -38.86026 | -64.57274 | 37049 ft | 510 kts | 86° |
| 2026-04-21 23:04 | -38.85590 | -64.48189 | 37054 ft | 510 kts | 86° |
| 2026-04-21 23:05 | -38.85150 | -64.39183 | 37056 ft | 511 kts | 86° |
| 2026-04-21 23:05 | -38.84710 | -64.30297 | 37058 ft | 510 kts | 85° |
| 2026-04-21 23:06 | -38.84253 | -64.21238 | 37074 ft | 510 kts | 85° |
| 2026-04-21 23:06 | -38.83793 | -64.12237 | 37070 ft | 511 kts | 85° |
| 2026-04-21 23:07 | -38.83328 | -64.03272 | 37069 ft | 512 kts | 85° |
| 2026-04-21 23:07 | -38.82852 | -63.94245 | 37073 ft | 512 kts | 85° |
| 2026-04-21 23:08 | -38.82373 | -63.85284 | 37073 ft | 512 kts | 85° |
| 2026-04-21 23:08 | -38.81886 | -63.76306 | 37068 ft | 512 kts | 85° |
| 2026-04-21 23:09 | -38.81385 | -63.67193 | 37073 ft | 512 kts | 85° |
| 2026-04-21 23:09 | -38.80882 | -63.58173 | 37065 ft | 513 kts | 85° |
| 2026-04-21 23:10 | -38.80368 | -63.49102 | 37067 ft | 514 kts | 86° |
| 2026-04-21 23:10 | -38.79850 | -63.40063 | 37078 ft | 514 kts | 86° |
| 2026-04-21 23:11 | -38.79322 | -63.30983 | 37070 ft | 515 kts | 85° |
| 2026-04-21 23:11 | -38.78791 | -63.21972 | 37076 ft | 515 kts | 85° |
| 2026-04-21 23:12 | -38.78257 | -63.12907 | 37079 ft | 516 kts | 85° |
| 2026-04-21 23:12 | -38.77707 | -63.03841 | 37080 ft | 516 kts | 85° |
| 2026-04-21 23:13 | -38.77054 | -62.93221 | 37064 ft | 515 kts | 85° |
| 2026-04-21 23:13 | -38.76582 | -62.85645 | 37091 ft | 515 kts | 85° |
| 2026-04-21 23:14 | -38.76010 | -62.76561 | 37082 ft | 516 kts | 85° |
| 2026-04-21 23:14 | -38.75430 | -62.67456 | 37075 ft | 516 kts | 85° |
| 2026-04-21 23:15 | -38.74848 | -62.58420 | 37070 ft | 517 kts | 85° |
| 2026-04-21 23:15 | -38.74247 | -62.49219 | 37079 ft | 518 kts | 85° |
| 2026-04-21 23:16 | -38.73646 | -62.40109 | 37032 ft | 520 kts | 85° |
| 2026-04-21 23:16 | -38.73340 | -62.35506 | 37194 ft | 520 kts | 85° |
| 2026-04-21 23:16 | -38.73028 | -62.30856 | 37110 ft | 520 kts | 85° |
| 2026-04-21 23:17 | -38.72408 | -62.21690 | 37085 ft | 518 kts | 85° |
| 2026-04-21 23:17 | -38.71564 | -62.12559 | 37088 ft | 518 kts | 78° |
| 2026-04-21 23:18 | -38.70182 | -62.03576 | 37085 ft | 519 kts | 78° |
| 2026-04-21 23:18 | -38.68784 | -61.94482 | 37075 ft | 520 kts | 78° |
| 2026-04-21 23:19 | -38.67387 | -61.85433 | 37074 ft | 520 kts | 78° |
| 2026-04-21 23:19 | -38.65991 | -61.76428 | 36947 ft | 519 kts | 78° |
| 2026-04-21 23:20 | -38.65282 | -61.71866 | 37055 ft | 519 kts | 78° |
| 2026-04-21 23:20 | -38.64337 | -61.65807 | 37064 ft | 522 kts | 78° |
| 2026-04-21 23:20 | -38.63153 | -61.58244 | 37065 ft | 523 kts | 78° |
| 2026-04-21 23:21 | -38.61732 | -61.49197 | 37062 ft | 524 kts | 78° |
| 2026-04-21 23:21 | -38.60055 | -61.38589 | 37060 ft | 524 kts | 78° |
| 2026-04-21 23:22 | -38.58870 | -61.31123 | 37064 ft | 523 kts | 77° |
| 2026-04-21 23:22 | -38.57422 | -61.22044 | 37068 ft | 523 kts | 77° |
| 2026-04-21 23:23 | -38.55974 | -61.13015 | 37056 ft | 524 kts | 77° |
| 2026-04-21 23:23 | -38.54527 | -61.04033 | 37058 ft | 525 kts | 77° |
| 2026-04-21 23:24 | -38.53044 | -60.94879 | 37062 ft | 526 kts | 77° |
| 2026-04-21 23:24 | -38.51600 | -60.86015 | 37056 ft | 526 kts | 77° |
| 2026-04-21 23:25 | -38.49843 | -60.75286 | 37037 ft | 526 kts | 76° |
| 2026-04-21 23:25 | -38.48616 | -60.67827 | 37036 ft | 525 kts | 76° |
| 2026-04-21 23:26 | -38.47116 | -60.58757 | 37113 ft | 526 kts | 77° |
| 2026-04-21 23:26 | -38.45616 | -60.49727 | 37047 ft | 524 kts | 76° |
| 2026-04-21 23:27 | -38.44104 | -60.40680 | 37047 ft | 523 kts | 76° |
| 2026-04-21 23:27 | -38.42632 | -60.31879 | 37040 ft | 522 kts | 76° |
| 2026-04-21 23:28 | -38.41084 | -60.22712 | 37043 ft | 523 kts | 75° |
| 2026-04-21 23:28 | -38.39564 | -60.13751 | 36828 ft | 527 kts | 76° |
| 2026-04-21 23:29 | -38.38791 | -60.09217 | 36231 ft | 530 kts | 76° |
| 2026-04-21 23:29 | -38.38019 | -60.04686 | 35562 ft | 526 kts | 76° |
| 2026-04-21 23:29 | -38.37250 | -60.00191 | 34897 ft | 523 kts | 76° |
| 2026-04-21 23:29 | -38.36490 | -59.95756 | 34215 ft | 523 kts | 76° |
| 2026-04-21 23:30 | -38.35466 | -59.89796 | 33302 ft | 522 kts | 76° |
| 2026-04-21 23:30 | -38.34949 | -59.86796 | 32845 ft | 521 kts | 77° |
| 2026-04-21 23:30 | -38.34186 | -59.82375 | 32144 ft | 516 kts | 76° |
| 2026-04-21 23:30 | -38.33465 | -59.78207 | 31516 ft | 510 kts | 76° |
| 2026-04-21 23:31 | -38.32736 | -59.73999 | 30850 ft | 504 kts | 76° |
| 2026-04-21 23:31 | -38.31978 | -59.69633 | 30196 ft | 499 kts | 76° |
| 2026-04-21 23:31 | -38.31059 | -59.64360 | 29359 ft | 492 kts | 76° |
| 2026-04-21 23:31 | -38.30645 | -59.61987 | 28986 ft | 489 kts | 76° |
| 2026-04-21 23:32 | -38.29812 | -59.57227 | 28220 ft | 483 kts | 75° |
| 2026-04-21 23:32 | -38.29092 | -59.53123 | 27574 ft | 476 kts | 76° |
| 2026-04-21 23:32 | -38.28373 | -59.49038 | 26955 ft | 468 kts | 75° |
| 2026-04-21 23:32 | -38.27693 | -59.45183 | 26357 ft | 460 kts | 76° |
| 2026-04-21 23:33 | -38.26768 | -59.39948 | 25553 ft | 447 kts | 75° |
| 2026-04-21 23:33 | -38.26318 | -59.37401 | 25166 ft | 441 kts | 75° |
| 2026-04-21 23:33 | -38.25674 | -59.33781 | 24616 ft | 432 kts | 74° |
| 2026-04-21 23:33 | -38.25000 | -59.30035 | 24013 ft | 422 kts | 75° |
| 2026-04-21 23:34 | -38.24364 | -59.26465 | 23456 ft | 412 kts | 75° |
| 2026-04-21 23:34 | -38.23754 | -59.22949 | 22924 ft | 401 kts | 75° |
| 2026-04-21 23:34 | -38.23152 | -59.19544 | 22421 ft | 390 kts | 73° |
| 2026-04-21 23:34 | -38.22303 | -59.16420 | 21703 ft | 383 kts | 61° |
| 2026-04-21 23:35 | -38.20882 | -59.13687 | 21013 ft | 374 kts | 50° |
| 2026-04-21 23:35 | -38.19207 | -59.11228 | 20495 ft | 361 kts | 36° |
| 2026-04-21 23:35 | -38.17169 | -59.09511 | 20350 ft | 346 kts | 26° |
| 2026-04-21 23:35 | -38.14951 | -59.08304 | 20093 ft | 355 kts | 19° |
| 2026-04-21 23:36 | -38.12590 | -59.07380 | 19526 ft | 359 kts | 14° |
| 2026-04-21 23:36 | -38.10254 | -59.06573 | 19744 ft | 352 kts | 16° |
| 2026-04-21 23:36 | -38.07821 | -59.05742 | 19583 ft | 361 kts | 17° |
| 2026-04-21 23:36 | -38.05389 | -59.04872 | 19246 ft | 367 kts | 16° |
| 2026-04-21 23:37 | -38.02944 | -59.04022 | 18661 ft | 361 kts | 16° |
| 2026-04-21 23:37 | -38.00549 | -59.03173 | 18185 ft | 354 kts | 16° |
| 2026-04-21 23:37 | -37.98142 | -59.02358 | 17619 ft | 353 kts | 13° |
| 2026-04-21 23:37 | -37.95794 | -59.01628 | 17528 ft | 350 kts | 13° |
| 2026-04-21 23:38 | -37.93449 | -59.00867 | 17412 ft | 354 kts | 13° |
| 2026-04-21 23:38 | -37.91038 | -59.00080 | 17221 ft | 354 kts | 14° |
| 2026-04-21 23:38 | -37.88767 | -58.99175 | 17537 ft | 347 kts | 21° |
| 2026-04-21 23:38 | -37.86508 | -58.98032 | 17393 ft | 359 kts | 21° |
| 2026-04-21 23:39 | -37.84174 | -58.96847 | 17124 ft | 355 kts | 21° |
| 2026-04-21 23:39 | -37.81894 | -58.95672 | 16873 ft | 351 kts | 22° |
| 2026-04-21 23:39 | -37.79659 | -58.94527 | 16625 ft | 349 kts | 21° |
| 2026-04-21 23:39 | -37.77407 | -58.93352 | 16371 ft | 348 kts | 22° |
| 2026-04-21 23:40 | -37.75375 | -58.91711 | 16115 ft | 350 kts | 43° |
| 2026-04-21 23:40 | -37.74015 | -58.89146 | 15846 ft | 356 kts | 65° |
| 2026-04-21 23:40 | -37.73447 | -58.86082 | 15578 ft | 361 kts | 79° |
| 2026-04-21 23:40 | -37.73309 | -58.82920 | 15311 ft | 363 kts | 88° |
| 2026-04-21 23:41 | -37.73521 | -58.78644 | 14960 ft | 365 kts | 92° |
| 2026-04-21 23:41 | -37.73640 | -58.76546 | 14801 ft | 365 kts | 90° |
| 2026-04-21 23:41 | -37.73882 | -58.72301 | 14453 ft | 363 kts | 91° |
| 2026-04-21 23:41 | -37.74061 | -58.69139 | 14190 ft | 362 kts | 90° |
| 2026-04-21 23:42 | -37.74183 | -58.66980 | 14017 ft | 362 kts | 91° |
| 2026-04-21 23:42 | -37.74358 | -58.63819 | 13716 ft | 361 kts | 91° |
| 2026-04-21 23:42 | -37.74533 | -58.60697 | 13455 ft | 360 kts | 91° |
| 2026-04-21 23:42 | -37.74710 | -58.57532 | 13193 ft | 353 kts | 91° |
| 2026-04-21 23:43 | -37.74877 | -58.54539 | 12944 ft | 340 kts | 91° |
| 2026-04-21 23:43 | -37.75040 | -58.51589 | 12698 ft | 334 kts | 91° |
| 2026-04-21 23:43 | -37.75203 | -58.48655 | 12447 ft | 332 kts | 90° |
| 2026-04-21 23:43 | -37.75362 | -58.45758 | 12204 ft | 329 kts | 90° |
| 2026-04-21 23:44 | -37.75519 | -58.42904 | 11950 ft | 327 kts | 90° |
| 2026-04-21 23:44 | -37.75673 | -58.40060 | 11698 ft | 325 kts | 90° |
| 2026-04-21 23:44 | -37.75826 | -58.37208 | 11444 ft | 323 kts | 90° |
| 2026-04-21 23:44 | -37.75978 | -58.34392 | 11196 ft | 321 kts | 90° |
| 2026-04-21 23:45 | -37.76127 | -58.31599 | 10916 ft | 320 kts | 90° |
| 2026-04-21 23:45 | -37.76423 | -58.26059 | 10082 ft | 310 kts | 90° |
| 2026-04-21 23:45 | -37.76565 | -58.23369 | 9665 ft | 304 kts | 90° |
| 2026-04-21 23:46 | -37.76703 | -58.20735 | 9269 ft | 299 kts | 89° |
| 2026-04-21 23:46 | -37.76836 | -58.18135 | 8866 ft | 293 kts | 91° |
| 2026-04-21 23:46 | -37.76968 | -58.15595 | 8484 ft | 286 kts | 91° |
| 2026-04-21 23:46 | -37.77096 | -58.13171 | 8127 ft | 279 kts | 90° |
| 2026-04-21 23:47 | -37.77223 | -58.10722 | 7759 ft | 274 kts | 90° |
| 2026-04-21 23:47 | -37.77345 | -58.08344 | 7398 ft | 268 kts | 90° |
| 2026-04-21 23:47 | -37.77465 | -58.06015 | 7040 ft | 263 kts | 89° |
| 2026-04-21 23:47 | -37.77620 | -58.02982 | 6556 ft | 255 kts | 89° |
| 2026-04-21 23:48 | -37.77694 | -58.01515 | 6354 ft | 249 kts | 89° |
| 2026-04-21 23:48 | -37.77803 | -57.99375 | 6033 ft | 239 kts | 90° |
| 2026-04-21 23:48 | -37.77904 | -57.97316 | 5733 ft | 230 kts | 90° |
| 2026-04-21 23:48 | -37.78001 | -57.95341 | 5400 ft | 225 kts | 90° |
| 2026-04-21 23:49 | -37.78099 | -57.93378 | 5128 ft | 217 kts | 92° |
| 2026-04-21 23:49 | -37.78194 | -57.91460 | 4824 ft | 217 kts | 92° |
| 2026-04-21 23:49 | -37.78324 | -57.88974 | 4446 ft | 216 kts | 90° |
| 2026-04-21 23:49 | -37.78491 | -57.87092 | 4133 ft | 215 kts | 102° |
| 2026-04-21 23:50 | -37.78851 | -57.85925 | 3953 ft | 217 kts | 116° |
| 2026-04-21 23:50 | -37.79659 | -57.84282 | 3673 ft | 219 kts | 120° |
| 2026-04-21 23:50 | -37.80493 | -57.82672 | 3426 ft | 213 kts | 118° |
| 2026-04-21 23:50 | -37.81302 | -57.81092 | 3192 ft | 213 kts | 121° |
| 2026-04-21 23:51 | -37.82088 | -57.79556 | 3011 ft | 206 kts | 118° |
| 2026-04-21 23:51 | -37.83100 | -57.77586 | 2844 ft | 190 kts | 120° |
| 2026-04-21 23:51 | -37.83569 | -57.76680 | 2772 ft | 180 kts | 118° |
| 2026-04-21 23:51 | -37.84232 | -57.75380 | 2685 ft | 169 kts | 117° |
| 2026-04-21 23:52 | -37.84856 | -57.74150 | 2565 ft | 164 kts | 117° |
| 2026-04-21 23:52 | -37.85470 | -57.72938 | 2435 ft | 163 kts | 116° |
| 2026-04-21 23:52 | -37.86079 | -57.71743 | 2317 ft | 162 kts | 118° |
| 2026-04-21 23:52 | -37.86692 | -57.70543 | 2218 ft | 159 kts | 120° |
| 2026-04-21 23:53 | -37.87279 | -57.69391 | 2071 ft | 150 kts | 120° |
| 2026-04-21 23:53 | -37.87826 | -57.68321 | 1883 ft | 136 kts | 120° |
| 2026-04-21 23:53 | -37.88300 | -57.67401 | 1714 ft | 117 kts | 120° |
| 2026-04-21 23:53 | -37.88857 | -57.66324 | 1544 ft | 104 kts | 118° |
| 2026-04-21 23:54 | -37.89118 | -57.65812 | 1444 ft | 105 kts | 117° |
| 2026-04-21 23:54 | -37.89509 | -57.65033 | 1292 ft | 102 kts | 117° |
| 2026-04-21 23:54 | -37.89888 | -57.64271 | 1167 ft | 104 kts | 117° |
| 2026-04-21 23:54 | -37.90282 | -57.63488 | 1037 ft | 105 kts | 119° |
| 2026-04-21 23:55 | -37.90679 | -57.62705 | 890 ft | 106 kts | 120° |
| 2026-04-21 23:55 | -37.91080 | -57.61916 | 750 ft | 108 kts | 120° |
| 2026-04-21 23:55 | -37.91630 | -57.60842 | 562 ft | 109 kts | 120° |
| 2026-04-21 23:55 | -37.91906 | -57.60303 | 466 ft | 110 kts | 121° |
| 2026-04-21 23:56 | -37.92324 | -57.59475 | 333 ft | 111 kts | 120° |
| 2026-04-21 23:56 | -37.92739 | -57.58672 | 135 ft | 107 kts | 120° |
| 2026-04-21 23:56 | -37.93127 | -57.57908 | 63 ft | 92 kts | 122° |
| 2026-04-21 23:56 | -37.93419 | -57.57328 | 54 ft | 65 kts | 123° |
| 2026-04-21 23:57 | -37.93626 | -57.56920 | 54 ft | 48 kts | 122° |
| 2026-04-21 23:57 | -37.93862 | -57.56456 | 54 ft | 45 kts | 125° |
| 2026-04-21 23:57 | -37.93935 | -57.56326 | 54 ft | 14 kts | 146° |
| 2026-04-21 23:57 | -37.94009 | -57.56394 | 54 ft | 17 kts | 240° |
| 2026-04-21 23:58 | -37.94011 | -57.56551 | 54 ft | 20 kts | 295° |
| 2026-04-21 23:58 | -37.93935 | -57.56726 | 54 ft | 24 kts | 297° |
| 2026-04-21 23:58 | -37.93851 | -57.56914 | 54 ft | 21 kts | 300° |
| 2026-04-21 23:58 | -37.93789 | -57.57052 | 54 ft | 14 kts | 300° |
| 2026-04-21 23:59 | -37.93741 | -57.57165 | 55 ft | 16 kts | 298° |
| 2026-04-21 23:59 | -37.93678 | -57.57309 | 57 ft | 19 kts | 300° |
| 2026-04-21 23:59 | -37.93577 | -57.57534 | 58 ft | 24 kts | 299° |
| 2026-04-21 23:59 | -37.93491 | -57.57728 | 60 ft | 26 kts | 301° |
| 2026-04-22 00:00 | -37.93442 | -57.57840 | 61 ft | 10 kts | 299° |
| 2026-04-22 00:00 | -37.93406 | -57.57920 | 62 ft | 11 kts | 300° |
| 2026-04-22 00:00 | -37.93370 | -57.58004 | 64 ft | 5 kts | 294° |
| 2026-04-22 00:00 | -37.93407 | -57.58043 | 64 ft | 10 kts | 202° |
| 2026-04-22 00:01 | -37.93448 | -57.58030 | 64 ft | 6 kts | 115° |
| 2026-04-22 00:01 | -37.93462 | -57.57997 | 64 ft | 0 kts | 119° |